Terminal Aerodrome Forecast
Issued by NWS

Home | Current Version | Previous Version | Text Only | Print | Product List | Glossary On
Versions: 1 2 3 4 5 6 7 8 9 10 11 12 13
000
FTUS46 KSEW 232328
TAFHQM
TAF
KHQM 232328Z 2400/2424 14016G21KT 2SM -RA BR FEW008 BKN013 OVC019
     FM240400 15012KT 3SM -RA BR OVC010
     FM241000 18010KT 5SM -SHRA BR SCT012 OVC020
     FM242200 10006KT P6SM -SHRA SCT018 OVC050=

USA.gov is the U.S. government's official web portal to all federal, state and local government web resources and services.